Mustafa Unai

Scout - Trabzonspor
3 Dec 2028
Sunday
Process

Personality

Adaptability (18) Ambition (10) Controversy (4) Loyalty (1) Pressure (2) Professionalism (10) Sportsmanship (11) Temperament (8)

Profile

Coaching Style Democratic
License Continental C
Determination 15
Man Management 11
Motivating 12
Discipline 11
Job Satisfaction
100%
Fatigue
0%
Role Scout
Wage 107.3K p/w
Contract 14.03.2030

Performance

Behaviour Good
Training Effectiveness
56%
Player Development
50%
Injury Prevention
75%
Tactical Implementation
55%

Recent Events

Assessed a player now
Attended a recruitment meeting now
Assessed a player now
Assessed a player now
Assessed a player 7d ago
Assessed a player 7d ago
Observed a match 7d ago
Assessed a player 7d ago

Currently Monitoring

74
Player Club Status Ability Confidence Watched Last Observed Latest Vote
Alejo Veliz Bahia Active 150 / 140 40% 2 02.12.2028 -
Louis Munteanu Charlotte Football Club Active 146 / 136 40% 1 02.12.2028 -
Christian Kouamé Atlético Mineiro Active 141 / 126 40% 1 01.12.2028 -
Lyle Foster Rosenborg Active 150 / 139 40% 2 30.11.2028 -
Kerem Aktürkoğlu Atlético Mineiro Active 153 / 148 40% 1 30.11.2028 -
Mutsuki Kato Sanfrecce Hiroshima Active 127 / 127 40% 1 27.11.2028 -
Pep Biel Charlotte Football Club Active 137 / 125 40% 1 27.11.2028 -
Pedro Flamengo Active 161 / 144 40% 2 25.11.2028 -
Talles Magno New York City Active 136 / 138 40% 1 25.11.2028 -
John Kennedy Corinthians Active 149 / 135 40% 1 24.11.2028 -
Matías Arezo Penarol Active 124 / 123 40% 1 24.11.2028 -
Alan Velasco Fortaleza Active 152 / 127 40% 4 23.11.2028 -
Agustín Anello Philadelphia Union Active 122 / 134 40% 1 23.11.2028 -
Ibrahim Fullah Charlton Athletic Active 125 / 125 40% 2 21.11.2028 -
Aarón Ochoa Málaga Active 120 / 135 40% 1 21.11.2028 -
Julian Hall Real Salt Lake Active 98 / 121 40% 1 20.11.2028 -
Harry Gray Harrogate Town Active 137 / 138 40% 1 20.11.2028 -
Tahiel Peralta Racing Club Active 125 / 119 40% 2 17.11.2028 -
Morgan Guilavogui Real Salt Lake Active 138 / 130 40% 1 17.11.2028 -
Romelle Donovan Brentford Active 138 / 137 40% 1 17.11.2028 -
Lucca São Paulo Active 110 / 129 40% 1 16.11.2028 -
Oumar Camara Vitoria Guimaraes Active 145 / 140 40% 1 16.11.2028 -
Buba Sangaré Elche Active 146 / 147 40% 1 15.11.2028 -
Lisandro Piñero Banfield Active 126 / 124 40% 1 15.11.2028 -
Marcelo Ryan Vissel Kobe Active 143 / 140 40% 1 14.11.2028 -
Dejan Joveljić Seattle Sounders Active 120 / 134 40% 1 09.11.2028 -
Peyton Miller New England Revolution Active 116 / 117 40% 1 08.11.2028 -
Igor Tyjon Barrow AFC Active 131 / 123 40% 1 06.11.2028 -
Alemão Rayo Vallecano Active 144 / 143 40% 2 10.08.2028 -
Sebastiano Esposito Cagliari Active 155 / 148 40% 1 10.08.2028 -
Tyrese Campbell Sheffield United Active 146 / 141 40% 3 08.08.2028 -
William Osula Wrexham Active 148 / 136 40% 1 07.08.2028 -
Ismaïla Sarr Crystal Palace Active 168 / 157 40% 1 07.08.2028 -
Aral Şimşir Porto Rejected 152 / 139 40% 1 04.08.2028 Needs More Info
Hugo Duro Valencia Active 138 / 153 40% 1 04.08.2028 -
Jayden Danns Bradford City Rejected 157 / 140 40% 2 01.08.2028 Needs More Info
Miguel Rodríguez Alavés Active 141 / 138 40% 1 01.08.2028 -
Alexey Batrakov Gaziantep Active 149 / 157 40% 1 31.07.2028 -
Jay Stansfield Birmingham Active 133 / 137 40% 2 28.07.2028 -
Oh Hyeon-Gyu Besiktas Active 136 / 135 40% 2 27.07.2028 -
Hwang Hee-Chan Wolverhampton Active 132 / 133 40% 1 25.07.2028 -
Matěj Jurásek Doncaster Rovers Active 126 / 123 40% 1 25.07.2028 -
Semih Kılıçsoy Besiktas Rejected 150 / 135 40% 1 25.07.2028 Needs More Info
Fer Niño Elche Active 126 / 138 40% 1 18.07.2028 -
Andrés Martín Racing Santander Active 145 / 144 40% 1 10.07.2028 -
Jorge Salinas Racing Santander Active 149 / 141 40% 3 26.06.2028 -
Konta Ismaily Active 98 / 105 40% 1 26.06.2028 -
Tyreece Campbell Charlton Athletic Active 136 / 124 40% 1 19.06.2028 -
Carlos Alcaraz Stoke City Active 159 / 146 40% 1 19.06.2028 -
João Mendes Kayserispor Rejected 116 / 117 58% 1 12.06.2028 Reject
Honest Ahanor Atalanta Active 152 / 136 40% 4 29.05.2028 -
Jan Bürger Northampton Town Active 127 / 120 40% 4 29.05.2028 -
Tyler Fletcher Rotherham United Active 117 / 119 40% 1 26.05.2028 -
Ayden Heaven Portsmouth Active 158 / 150 40% 2 24.05.2028 -
Riquelme Thompson-Jones Accrington Stanley Active 116 / 121 40% 2 22.05.2028 -
Musa Danjuma Umraniyespor Active 107 / 108 40% 1 22.05.2028 -
Christos Mouzakitis Hull City Active 146 / 143 40% 2 21.05.2028 -
Trey Nyoni Rotherham United Active 138 / 142 40% 3 21.05.2028 -
Marc Bernal Sevilla Active 132 / 147 40% 3 15.05.2028 -
Giovanni Leoni Lincoln City Active 156 / 139 40% 4 15.05.2028 -
Jorthy Mokio ADO Den Haag Active 118 / 139 40% 2 14.05.2028 -
Bernardo Lima Porto Active 107 / 117 40% 3 05.05.2028 -
Daniel Banjaqui Benfica Active 139 / 129 40% 2 05.05.2028 -
Martim Cunha Porto Active 108 / 116 40% 3 02.05.2028 -
Josh Nichols Oldham Athletic Active 137 / 123 40% 1 28.04.2028 -
Kang-In Lee Villarreal Active 160 / 159 40% 3 19.04.2028 -
Kauã Moraes Flamengo Active 117 / 127 40% 1 01.02.2028 -
Lucas Høgsberg RC Strasbourg Active 140 / 150 40% 1 01.02.2028 -
Facundo Colidio Vasco da Gama Active 119 / 136 40% 1 31.12.2027 -
Balázs Tóth Blackburn Rovers Active 125 / 128 40% 1 26.07.2027 -
Joe Lumley Sheffield Wednesday Active 129 / 120 40% 1 12.07.2027 -
Ivor Pandur Hull City Active 138 / 125 40% 1 07.07.2027 -
Tiago Freitas Benfica Active 132 / 123 40% 1 21.06.2027 -
Simón Pinto Huachipato Active 81 / 109 40% 1 21.06.2027 -